Coronel Moldes, Argentina
Current Conditions -  °F | °C
As of 9:00 PM on Tuesday 21 Oct 2014 (Local Time) from SAOC Reporting Station
Clear Clear  
Wind Chill: 77°   Ceiling: Unl
Heat Index: 79°   Visibility: 6mi
Dew Point: 57°   Wind: 23mph
Humidity: 50%   Direction: 360°N
Pressure: 29.88"   Gusts: 35mph
Location:  33.68°S, 64.57°W
Report Text: SAOC 220000Z 36020G30KT CAVOK 25/14 Q1012
Loading
Personal Weather Stations






























Interactive Weather Map
Tropical Storm Tracking
New forecast layout! Learn more

10-Day Weather Forecast

Advertisements
Track Severe Weather on mobile